Time;durP1;ratioP1;P1;durP2;ratioP2;P2;SDS_P1;SDS_P2;PMS_P1;PMS_P2;Temp;Humidity;BMP_temperature;BMP_pressure;BME280_temperature;BME280_humidity;BME280_pressure;Samples;Min_cycle;Max_cycle;Signal;HPM_P1;HPM_P2
2021/12/10 00:02:57;;;;;;;44.33;25.45;;;22.40;36.40;;;;;;6153921;28;83119;-66
2021/12/10 00:05:57;;;;;;;43.42;24.58;;;22.40;36.80;;;;;;6154194;28;82792;-66
2021/12/10 00:08:59;;;;;;;44.03;26.23;;;22.40;36.40;;;;;;6140325;28;83444;-66
2021/12/10 00:12:00;;;;;;;44.53;24.90;;;22.40;37.10;;;;;;6156428;28;83465;-66
2021/12/10 00:15:02;;;;;;;38.95;25.15;;;22.40;37.10;;;;;;6144723;28;82862;-66
2021/12/10 00:18:03;;;;;;;43.92;24.40;;;22.40;36.60;;;;;;6154586;28;83187;-67
2021/12/10 00:21:03;;;;;;;40.17;24.65;;;22.30;36.20;;;;;;6158033;28;83972;-66
2021/12/10 00:24:04;;;;;;;49.35;26.40;;;22.30;36.50;;;;;;6152805;28;83508;-65
2021/12/10 00:27:06;;;;;;;40.22;23.35;;;22.30;36.50;;;;;;6147616;28;83509;-66
2021/12/10 00:30:08;;;;;;;41.58;23.90;;;22.30;36.40;;;;;;6153592;28;84893;-66
2021/12/10 00:33:13;;;;;;;43.03;24.20;;;22.30;36.60;;;;;;6154052;28;83086;-66
2021/12/10 00:36:14;;;;;;;41.70;25.30;;;22.30;36.30;;;;;;6145785;28;83084;-66
2021/12/10 00:39:14;;;;;;;40.65;22.77;;;22.30;36.30;;;;;;6138041;28;83152;-67
2021/12/10 00:42:15;;;;;;;41.85;24.27;;;22.30;36.10;;;;;;6139063;28;83469;-67
2021/12/10 00:45:15;;;;;;;43.45;24.02;;;22.30;36.30;;;;;;6153886;28;82974;-67
2021/12/10 00:48:16;;;;;;;41.40;23.75;;;22.30;36.20;;;;;;6137663;28;83146;-67
2021/12/10 00:51:16;;;;;;;41.47;25.00;;;22.30;36.50;;;;;;6148582;28;84307;-67
2021/12/10 00:54:17;;;;;;;41.28;24.85;;;22.30;35.90;;;;;;6155954;28;83233;-67
2021/12/10 00:57:17;;;;;;;39.97;23.92;;;22.30;36.20;;;;;;6151230;28;83019;-67
2021/12/10 01:00:18;;;;;;;45.88;25.95;;;22.30;36.00;;;;;;6156410;28;83360;-67
2021/12/10 01:03:18;;;;;;;42.10;23.63;;;22.30;35.90;;;;;;6153685;28;84020;-67
2021/12/10 01:06:19;;;;;;;44.45;25.23;;;22.30;36.10;;;;;;6153783;28;83550;-67
2021/12/10 01:09:19;;;;;;;42.85;25.17;;;22.30;36.10;;;;;;6153700;28;83241;-67
2021/12/10 01:12:20;;;;;;;44.53;24.10;;;22.30;36.10;;;;;;6155245;28;83382;-67
2021/12/10 01:25:38;;;;;;;42.72;24.13;;;22.20;35.80;;;;;;6157139;28;83255;-67
2021/12/10 01:28:39;;;;;;;39.88;23.17;;;22.30;36.20;;;;;;6150092;28;83032;-67
2021/12/10 01:31:39;;;;;;;40.05;23.50;;;22.30;36.20;;;;;;6156121;28;84145;-67
2021/12/10 01:34:40;;;;;;;42.58;23.42;;;22.20;36.30;;;;;;6153821;28;85427;-66
2021/12/10 01:37:40;;;;;;;41.15;24.23;;;22.20;36.10;;;;;;6152586;28;83206;-67
2021/12/10 01:40:41;;;;;;;40.63;23.08;;;22.30;36.90;;;;;;6153774;28;84386;-66
2021/12/10 01:43:43;;;;;;;42.38;23.23;;;22.20;36.60;;;;;;6153485;28;83487;-66
2021/12/10 01:46:43;;;;;;;37.53;21.70;;;22.30;36.50;;;;;;6153093;28;83534;-66
2021/12/10 01:49:44;;;;;;;42.25;23.30;;;22.20;36.30;;;;;;6153206;28;83425;-66
2021/12/10 01:52:45;;;;;;;35.83;21.10;;;22.30;36.40;;;;;;6155271;28;83475;-66
2021/12/10 01:55:45;;;;;;;38.50;22.30;;;22.20;36.60;;;;;;6151178;28;84973;-67
2021/12/10 01:58:46;;;;;;;40.35;22.80;;;22.20;36.70;;;;;;6153730;28;83224;-67
2021/12/10 02:01:46;;;;;;;39.42;22.50;;;22.20;36.70;;;;;;6153012;28;83003;-67
2021/12/10 02:04:47;;;;;;;39.47;21.83;;;22.20;36.90;;;;;;6150088;28;83229;-67
2021/12/10 02:07:47;;;;;;;38.10;21.27;;;22.30;36.80;;;;;;6136804;28;83217;-67
2021/12/10 02:10:48;;;;;;;42.47;23.67;;;22.20;37.20;;;;;;6151770;28;83869;-67
2021/12/10 02:13:48;;;;;;;38.67;22.92;;;22.20;36.90;;;;;;6153161;28;84480;-66
2021/12/10 02:16:49;;;;;;;38.67;22.65;;;22.20;36.60;;;;;;6155711;28;83073;-66
2021/12/10 02:19:49;;;;;;;40.22;23.52;;;22.20;36.60;;;;;;6151831;28;84025;-68
2021/12/10 02:22:50;;;;;;;43.97;24.23;;;22.20;37.00;;;;;;6153800;28;83202;-66
2021/12/10 02:25:50;;;;;;;41.33;23.13;;;22.20;36.80;;;;;;6144281;28;84252;-66
2021/12/10 02:28:51;;;;;;;39.00;22.02;;;22.20;37.00;;;;;;6152372;28;86178;-66
2021/12/10 02:31:51;;;;;;;39.33;22.77;;;22.20;36.70;;;;;;6153650;28;84502;-66
2021/12/10 02:34:53;;;;;;;37.47;22.65;;;22.20;36.60;;;;;;6152444;28;83034;-66
2021/12/10 02:37:53;;;;;;;40.03;22.52;;;22.20;36.60;;;;;;6150580;28;83367;-66
2021/12/10 02:40:54;;;;;;;42.55;22.75;;;22.20;36.60;;;;;;6152002;28;83168;-67
2021/12/10 02:43:54;;;;;;;39.33;23.23;;;22.20;36.60;;;;;;6151054;28;84236;-66
2021/12/10 02:46:55;;;;;;;42.42;23.08;;;22.20;36.80;;;;;;6131495;28;83178;-66
2021/12/10 02:49:55;;;;;;;39.47;22.83;;;22.20;36.40;;;;;;6154273;28;83237;-66
2021/12/10 02:52:56;;;;;;;40.03;23.60;;;22.20;36.60;;;;;;6139253;28;82840;-66
2021/12/10 02:55:56;;;;;;;40.10;23.30;;;22.20;36.80;;;;;;6146974;28;84353;-65
2021/12/10 02:58:59;;;;;;;39.30;23.20;;;22.20;36.40;;;;;;6145930;28;84948;-66
2021/12/10 03:01:59;;;;;;;41.60;22.80;;;22.20;36.40;;;;;;6151264;28;83832;-66
2021/12/10 03:05:00;;;;;;;40.53;23.13;;;22.20;36.20;;;;;;6148535;28;82924;-67
2021/12/10 03:08:00;;;;;;;39.53;23.88;;;22.20;36.30;;;;;;6152837;28;82883;-67
2021/12/10 03:11:01;;;;;;;39.08;22.85;;;22.20;36.10;;;;;;6151776;28;83136;-67
2021/12/10 03:14:05;;;;;;;39.20;23.10;;;22.20;36.20;;;;;;6148997;28;84090;-67
2021/12/10 03:17:06;;;;;;;45.50;24.88;;;22.20;35.50;;;;;;6152974;28;82821;-67
2021/12/10 03:20:07;;;;;;;42.85;24.38;;;22.20;35.40;;;;;;6153231;28;83047;-67
2021/12/10 03:23:09;;;;;;;43.28;24.35;;;22.30;35.40;;;;;;6154075;28;83952;-67
2021/12/10 03:26:10;;;;;;;43.53;24.83;;;22.30;35.10;;;;;;6153144;28;82960;-67
2021/12/10 03:29:10;;;;;;;40.42;23.80;;;22.40;35.00;;;;;;6145228;28;83843;-66
2021/12/10 03:32:11;;;;;;;47.47;25.67;;;22.50;34.90;;;;;;6158046;28;83601;-67
2021/12/10 03:35:13;;;;;;;45.88;24.75;;;22.60;34.80;;;;;;6154011;28;83738;-67
2021/12/10 03:38:14;;;;;;;43.03;24.55;;;22.60;34.70;;;;;;6155505;28;82847;-66
2021/12/10 03:41:14;;;;;;;43.63;24.77;;;22.70;34.70;;;;;;6151003;28;83239;-66
2021/12/10 03:44:15;;;;;;;45.10;24.40;;;22.70;34.70;;;;;;6152054;28;84608;-66
2021/12/10 03:47:15;;;;;;;44.55;24.65;;;22.70;34.70;;;;;;6140451;28;84760;-66
2021/12/10 03:50:16;;;;;;;44.40;25.42;;;22.80;34.50;;;;;;6154776;28;82905;-66
2021/12/10 03:53:16;;;;;;;44.78;25.10;;;22.80;35.10;;;;;;6142902;28;82838;-66
2021/12/10 03:56:17;;;;;;;40.78;24.38;;;22.80;34.30;;;;;;6143215;28;83354;-67
2021/12/10 03:59:17;;;;;;;45.40;25.80;;;22.90;34.30;;;;;;6153309;28;83071;-66
2021/12/10 04:02:18;;;;;;;43.47;24.80;;;22.90;34.30;;;;;;6153348;28;82814;-67
2021/12/10 04:05:18;;;;;;;42.95;24.27;;;22.90;34.30;;;;;;6158564;28;83329;-68
2021/12/10 04:08:19;;;;;;;40.47;24.02;;;22.90;34.10;;;;;;6154374;28;82843;-67
2021/12/10 04:11:19;;;;;;;44.45;25.17;;;22.90;34.20;;;;;;6146214;28;83410;-67
2021/12/10 04:14:20;;;;;;;45.30;25.45;;;23.00;34.20;;;;;;6144843;28;83193;-67
2021/12/10 04:17:21;;;;;;;42.85;24.58;;;23.00;34.10;;;;;;6146968;28;83908;-71
2021/12/10 04:20:22;;;;;;;44.15;24.90;;;23.00;34.00;;;;;;6154023;28;82698;-71
2021/12/10 04:23:24;;;;;;;40.90;22.48;;;23.00;34.20;;;;;;6151541;28;85263;-70
2021/12/10 04:26:24;;;;;;;42.50;24.33;;;23.00;34.30;;;;;;6145832;28;83918;-71
2021/12/10 04:29:25;;;;;;;36.80;21.33;;;23.00;34.50;;;;;;6138953;28;83228;-70
2021/12/10 04:32:25;;;;;;;37.92;22.25;;;23.00;34.60;;;;;;6149942;28;83654;-71
2021/12/10 04:35:26;;;;;;;41.20;23.17;;;23.00;34.70;;;;;;6152206;28;83502;-71
2021/12/10 04:38:26;;;;;;;44.00;23.45;;;23.00;34.60;;;;;;6152937;28;83007;-70
2021/12/10 04:41:27;;;;;;;39.53;23.05;;;23.10;34.80;;;;;;6152990;28;84777;-71
2021/12/10 04:44:27;;;;;;;41.38;22.17;;;23.10;34.80;;;;;;6155816;28;83614;-71
2021/12/10 04:47:28;;;;;;;38.85;23.30;;;23.10;34.80;;;;;;6156590;28;82902;-71
2021/12/10 04:50:29;;;;;;;41.00;23.70;;;23.10;34.70;;;;;;6148222;28;84754;-72
2021/12/10 04:53:30;;;;;;;42.42;22.58;;;23.10;34.70;;;;;;6153084;28;82990;-72
2021/12/10 04:56:30;;;;;;;38.92;22.48;;;23.10;34.70;;;;;;6156215;28;83221;-72
2021/12/10 04:59:31;;;;;;;40.67;23.30;;;23.10;34.70;;;;;;6145363;28;84540;-74
2021/12/10 05:02:33;;;;;;;39.85;22.92;;;23.10;34.70;;;;;;6143717;28;83151;-68
2021/12/10 05:05:35;;;;;;;40.67;24.77;;;23.10;34.50;;;;;;6152003;28;83969;-68
2021/12/10 05:08:35;;;;;;;43.10;24.95;;;23.20;34.60;;;;;;6150746;28;84061;-68
2021/12/10 05:11:36;;;;;;;44.20;23.70;;;23.20;34.50;;;;;;6151185;28;83164;-68
2021/12/10 05:14:36;;;;;;;39.13;23.17;;;23.20;34.40;;;;;;6145866;28;82930;-68
2021/12/10 05:17:38;;;;;;;44.13;25.13;;;23.20;34.40;;;;;;6150162;28;83071;-70
2021/12/10 05:20:38;;;;;;;47.60;24.98;;;23.20;34.30;;;;;;6159791;28;88534;-68
2021/12/10 05:23:39;;;;;;;46.67;26.42;;;23.20;34.30;;;;;;6153520;28;83993;-68
2021/12/10 05:26:39;;;;;;;46.67;27.25;;;23.20;34.30;;;;;;6151612;28;83123;-68
2021/12/10 05:29:40;;;;;;;44.00;25.33;;;23.30;34.30;;;;;;6154757;28;83150;-64
2021/12/10 05:32:41;;;;;;;51.65;27.13;;;23.20;34.30;;;;;;6155458;28;83672;-67
2021/12/10 05:35:41;;;;;;;47.45;27.00;;;23.20;34.90;;;;;;6142800;28;83603;-66
2021/12/10 05:38:42;;;;;;;42.90;21.52;;;23.30;35.60;;;;;;6153687;28;83902;-64
2021/12/10 05:41:42;;;;;;;33.72;18.48;;;23.10;37.90;;;;;;6149907;28;83196;-64
2021/12/10 05:44:43;;;;;;;34.03;18.92;;;23.10;39.10;;;;;;6148600;28;83049;-63
2021/12/10 05:47:43;;;;;;;30.98;17.75;;;23.10;39.90;;;;;;6150890;28;83357;-64
2021/12/10 05:50:44;;;;;;;28.35;16.38;;;23.00;40.70;;;;;;6142703;28;83278;-65
2021/12/10 05:53:44;;;;;;;26.63;14.38;;;23.00;41.10;;;;;;6146271;28;83449;-63
2021/12/10 05:56:45;;;;;;;25.13;14.88;;;23.00;42.20;;;;;;6149371;28;85004;-65
2021/12/10 05:59:45;;;;;;;23.35;13.80;;;22.90;42.50;;;;;;6150748;28;83407;-65
2021/12/10 06:02:46;;;;;;;23.33;13.90;;;22.90;43.40;;;;;;6150671;28;83633;-66
2021/12/10 06:05:46;;;;;;;24.45;14.35;;;22.90;43.80;;;;;;6151581;28;82948;-66
2021/12/10 06:08:47;;;;;;;25.00;12.90;;;22.80;44.30;;;;;;6145834;28;83210;-65
2021/12/10 06:11:47;;;;;;;23.10;13.60;;;22.70;44.80;;;;;;6153262;28;83560;-66
2021/12/10 06:14:48;;;;;;;25.05;14.85;;;22.70;45.20;;;;;;6153357;28;83791;-66
2021/12/10 06:17:48;;;;;;;26.27;14.20;;;22.70;45.60;;;;;;6154195;28;84060;-65
2021/12/10 06:20:49;;;;;;;24.98;12.93;;;22.70;46.00;;;;;;6153187;28;85580;-65
2021/12/10 06:23:49;;;;;;;22.02;12.73;;;22.60;46.20;;;;;;6152825;28;83209;-65
2021/12/10 06:26:52;;;;;;;24.08;12.88;;;22.70;46.20;;;;;;6148049;28;85569;-68
2021/12/10 06:29:52;;;;;;;23.05;13.02;;;22.60;46.10;;;;;;6153951;28;83070;-64
2021/12/10 06:32:54;;;;;;;24.90;13.73;;;22.60;46.60;;;;;;6153158;28;84521;-67
2021/12/10 06:35:55;;;;;;;24.23;14.68;;;22.60;46.60;;;;;;6155580;28;83391;-67
2021/12/10 06:38:55;;;;;;;27.00;14.93;;;22.60;46.50;;;;;;6152478;28;83619;-65
2021/12/10 06:41:56;;;;;;;33.15;18.88;;;22.70;46.50;;;;;;6154592;28;83119;-69
2021/12/10 06:44:56;;;;;;;36.33;19.83;;;22.60;46.40;;;;;;6153033;28;83240;-66
2021/12/10 06:47:58;;;;;;;33.63;20.17;;;22.60;46.30;;;;;;6153271;28;83188;-67
2021/12/10 06:50:59;;;;;;;33.17;19.17;;;22.60;46.60;;;;;;6151711;28;83298;-64
2021/12/10 06:53:59;;;;;;;35.78;20.00;;;22.60;47.40;;;;;;6146636;28;83758;-64
2021/12/10 06:57:00;;;;;;;40.45;20.25;;;22.60;47.40;;;;;;6151154;28;84112;-65
2021/12/10 07:00:00;;;;;;;37.15;21.15;;;22.60;47.40;;;;;;6149264;28;83858;-65
2021/12/10 07:03:01;;;;;;;32.90;18.13;;;22.60;47.40;;;;;;6151197;28;86423;-67
2021/12/10 07:06:01;;;;;;;32.28;18.67;;;22.70;47.40;;;;;;6151183;28;84198;-64
2021/12/10 07:09:02;;;;;;;29.67;17.90;;;22.70;47.50;;;;;;6147080;28;83932;-65
2021/12/10 07:12:02;;;;;;;28.75;16.90;;;22.70;47.10;;;;;;6147512;28;82948;-66
2021/12/10 07:15:03;;;;;;;31.50;17.73;;;22.70;47.40;;;;;;6149002;28;84431;-66
2021/12/10 07:18:04;;;;;;;29.58;17.88;;;22.70;47.30;;;;;;6152766;28;83409;-67
2021/12/10 07:21:04;;;;;;;36.63;18.73;;;22.70;47.10;;;;;;6132068;28;83478;-68
2021/12/10 07:24:05;;;;;;;31.38;17.80;;;22.70;47.00;;;;;;6152466;28;83060;-64
2021/12/10 07:27:09;;;;;;;28.50;16.17;;;22.70;46.90;;;;;;6149072;28;83448;-63
2021/12/10 07:30:10;;;;;;;32.28;17.30;;;22.70;47.00;;;;;;6150102;28;83182;-64
2021/12/10 07:33:10;;;;;;;33.42;16.83;;;22.70;46.90;;;;;;6152384;28;83282;-64
2021/12/10 07:36:11;;;;;;;26.90;16.48;;;22.70;46.60;;;;;;6151049;28;82980;-67
2021/12/10 07:39:11;;;;;;;32.30;17.92;;;22.70;46.20;;;;;;6151909;28;83010;-66
2021/12/10 07:42:12;;;;;;;28.52;17.77;;;22.60;46.30;;;;;;6150004;28;83024;-67
2021/12/10 07:45:13;;;;;;;33.30;17.83;;;22.60;46.30;;;;;;6149562;28;83233;-65
2021/12/10 07:48:16;;;;;;;31.35;16.10;;;22.70;46.50;;;;;;6134878;28;87806;-66
2021/12/10 07:51:16;;;;;;;33.83;17.75;;;22.70;45.90;;;;;;6149233;28;82915;-66
2021/12/10 07:54:17;;;;;;;32.58;18.17;;;22.70;46.50;;;;;;6151658;28;83795;-66
2021/12/10 07:57:17;;;;;;;30.23;18.02;;;22.70;46.40;;;;;;6149711;28;82970;-67
2021/12/10 08:00:18;;;;;;;31.20;17.73;;;22.60;46.00;;;;;;6153274;28;84580;-66
2021/12/10 08:03:18;;;;;;;28.23;15.95;;;22.70;46.40;;;;;;6151324;28;83393;-65
2021/12/10 08:06:20;;;;;;;25.83;16.75;;;22.70;46.60;;;;;;6148678;28;84493;-65
2021/12/10 08:09:21;;;;;;;31.92;17.15;;;22.70;46.80;;;;;;6154343;28;84337;-67
2021/12/10 08:12:21;;;;;;;30.42;16.75;;;22.60;46.30;;;;;;6155551;28;83725;-64
2021/12/10 08:15:22;;;;;;;33.78;17.05;;;22.70;46.60;;;;;;6158020;28;83121;-66
2021/12/10 08:18:22;;;;;;;29.83;16.10;;;22.70;46.60;;;;;;6156097;28;83131;-65
2021/12/10 08:21:23;;;;;;;30.17;17.55;;;22.70;46.40;;;;;;6156512;28;83806;-66
2021/12/10 08:24:23;;;;;;;30.80;17.70;;;22.70;46.40;;;;;;6152467;28;90354;-66
2021/12/10 08:27:24;;;;;;;33.83;18.15;;;22.70;46.00;;;;;;6154324;28;84411;-68
2021/12/10 08:30:24;;;;;;;32.92;18.30;;;22.70;46.30;;;;;;6156219;28;83319;-67
2021/12/10 08:33:26;;;;;;;35.03;17.90;;;22.80;46.00;;;;;;6153703;28;83164;-66
2021/12/10 08:36:28;;;;;;;31.52;16.88;;;22.80;46.40;;;;;;6152509;28;84095;-65
2021/12/10 08:39:28;;;;;;;34.40;16.98;;;22.80;46.20;;;;;;6150421;28;84504;-64
2021/12/10 08:42:29;;;;;;;28.63;16.77;;;22.80;46.40;;;;;;6154753;28;84270;-68
2021/12/10 08:45:30;;;;;;;29.27;17.05;;;22.90;46.10;;;;;;6152774;28;83457;-66
2021/12/10 08:48:30;;;;;;;31.90;18.05;;;22.90;45.30;;;;;;6155322;28;83295;-67
2021/12/10 08:51:31;;;;;;;34.22;18.98;;;23.00;45.40;;;;;;6152478;28;83434;-66
2021/12/10 08:54:31;;;;;;;29.40;17.38;;;23.00;45.00;;;;;;6151287;28;83435;-66
2021/12/10 08:57:32;;;;;;;29.33;17.02;;;23.10;45.30;;;;;;6154243;28;83174;-66
2021/12/10 09:00:32;;;;;;;27.65;16.60;;;23.10;45.00;;;;;;6152224;28;83244;-67
2021/12/10 09:03:33;;;;;;;29.02;17.48;;;23.20;45.20;;;;;;6151148;28;84444;-66
2021/12/10 09:06:33;;;;;;;27.60;17.52;;;23.30;45.20;;;;;;6144035;28;83314;-66
2021/12/10 09:09:34;;;;;;;25.33;17.48;;;23.30;45.20;;;;;;6142880;28;82736;-66
2021/12/10 09:12:34;;;;;;;30.98;18.45;;;23.30;44.70;;;;;;6155914;28;83337;-67
2021/12/10 09:15:35;;;;;;;32.30;18.67;;;23.40;44.50;;;;;;6151373;28;84130;-69
2021/12/10 09:18:39;;;;;;;28.35;17.50;;;23.50;44.50;;;;;;6151245;28;83198;-68
2021/12/10 09:21:40;;;;;;;27.92;17.13;;;23.50;43.90;;;;;;6149655;28;83460;-67
2021/12/10 09:24:41;;;;;;;33.20;18.15;;;23.60;44.20;;;;;;6149528;28;83820;-67
2021/12/10 09:27:41;;;;;;;30.75;17.90;;;23.60;44.20;;;;;;6158858;28;83406;-67
2021/12/10 09:30:42;;;;;;;30.45;17.90;;;23.60;44.00;;;;;;6157765;28;83760;-67
2021/12/10 09:33:42;;;;;;;30.90;18.30;;;23.60;43.90;;;;;;6152401;28;85885;-66
2021/12/10 09:36:43;;;;;;;31.92;17.55;;;23.60;44.30;;;;;;6151229;28;82966;-66
2021/12/10 09:39:44;;;;;;;32.85;18.08;;;23.60;43.80;;;;;;6155125;28;83625;-65
2021/12/10 09:42:44;;;;;;;30.50;17.52;;;23.60;44.10;;;;;;6153850;28;83753;-65
2021/12/10 09:45:45;;;;;;;29.13;18.58;;;23.50;44.20;;;;;;6154782;28;84264;-63
2021/12/10 09:48:45;;;;;;;34.40;19.52;;;23.50;44.20;;;;;;6154056;28;83376;-63
2021/12/10 09:51:46;;;;;;;31.23;18.33;;;23.50;44.30;;;;;;6149066;28;82823;-65
2021/12/10 09:54:46;;;;;;;32.75;19.63;;;23.40;44.50;;;;;;6153107;28;83779;-63
2021/12/10 09:57:47;;;;;;;27.08;17.13;;;23.40;44.40;;;;;;6134677;28;82868;-64
2021/12/10 10:00:47;;;;;;;27.58;16.50;;;23.40;45.10;;;;;;6151349;28;84381;-63
2021/12/10 10:03:48;;;;;;;27.85;16.88;;;23.30;45.70;;;;;;6147238;28;82927;-63
2021/12/10 10:06:49;;;;;;;28.10;15.52;;;23.30;45.70;;;;;;6151040;28;83786;-63
2021/12/10 10:09:49;;;;;;;25.90;15.95;;;23.30;46.20;;;;;;6154337;28;83109;-63
2021/12/10 10:12:50;;;;;;;31.40;17.13;;;23.30;46.20;;;;;;6153486;28;83485;-64
2021/12/10 10:15:51;;;;;;;25.85;15.60;;;23.20;46.20;;;;;;6144455;28;83522;-63
2021/12/10 10:18:51;;;;;;;31.73;17.42;;;23.20;46.60;;;;;;6151067;28;83101;-64
2021/12/10 10:23:09;;;;;;;33.40;20.88;;;23.20;46.10;;;;;;6204450;27;76219;-63
2021/12/10 10:26:10;;;;;;;34.20;20.33;;;23.20;46.50;;;;;;6179592;28;83092;-62
2021/12/10 10:29:11;;;;;;;36.53;20.85;;;23.20;46.50;;;;;;6192618;28;83042;-62
2021/12/10 10:32:11;;;;;;;36.85;20.95;;;23.20;46.40;;;;;;6182629;27;83276;-62
2021/12/10 10:35:13;;;;;;;34.08;20.88;;;23.20;46.20;;;;;;6189291;27;83065;-62
2021/12/10 10:38:16;;;;;;;37.92;21.15;;;23.20;46.50;;;;;;6193159;27;82907;-62
2021/12/10 10:41:17;;;;;;;33.65;20.40;;;23.20;46.50;;;;;;6182004;28;82818;-62
2021/12/10 10:44:17;;;;;;;36.58;21.92;;;23.10;46.50;;;;;;6185939;27;84895;-63
2021/12/10 10:47:22;;;;;;;36.78;21.65;;;23.10;46.50;;;;;;6193123;28;83260;-64
2021/12/10 10:50:22;;;;;;;34.47;20.70;;;23.10;46.80;;;;;;6191593;28;82609;-62
2021/12/10 10:53:23;;;;;;;42.55;24.60;;;23.10;47.20;;;;;;6175718;28;83333;-65
2021/12/10 10:56:23;;;;;;;39.88;24.05;;;23.00;46.30;;;;;;6176442;28;84098;-63
2021/12/10 10:59:26;;;;;;;41.25;26.02;;;23.00;46.40;;;;;;6177538;28;84296;-67
2021/12/10 11:02:28;;;;;;;41.78;24.90;;;23.00;46.40;;;;;;6181995;28;83219;-61
2021/12/10 11:05:28;;;;;;;40.38;23.70;;;23.10;46.40;;;;;;6174462;28;82912;-63
2021/12/10 11:08:29;;;;;;;37.63;22.05;;;23.00;46.10;;;;;;6179002;28;83185;-64
2021/12/10 11:11:30;;;;;;;37.20;22.55;;;23.10;46.10;;;;;;6188462;27;83243;-63
2021/12/10 11:14:32;;;;;;;37.75;23.08;;;23.10;46.30;;;;;;6174256;28;82991;-63
2021/12/10 11:17:33;;;;;;;33.15;20.63;;;23.20;46.50;;;;;;6174613;28;83688;-63
2021/12/10 11:20:33;;;;;;;34.25;20.55;;;23.30;47.00;;;;;;6174629;28;83252;-64
2021/12/10 11:23:34;;;;;;;37.25;23.17;;;23.40;47.30;;;;;;6175029;28;83251;-63
2021/12/10 11:26:34;;;;;;;37.67;21.52;;;23.40;47.40;;;;;;6176648;28;83311;-62
2021/12/10 11:29:36;;;;;;;31.67;20.85;;;23.40;47.60;;;;;;6185995;28;83186;-63
2021/12/10 11:32:36;;;;;;;34.30;21.55;;;23.50;47.60;;;;;;6168364;28;82890;-63
2021/12/10 11:35:37;;;;;;;31.40;20.10;;;23.60;47.60;;;;;;6157547;28;83925;-62
2021/12/10 11:38:37;;;;;;;37.17;22.17;;;23.70;47.10;;;;;;6157861;28;83906;-63
2021/12/10 11:41:41;;;;;;;34.25;21.42;;;23.80;47.40;;;;;;6158345;28;83265;-63
2021/12/10 11:45:04;;;;;;;38.58;21.75;;;23.80;48.00;;;;;;6157135;28;87579;-63
2021/12/10 11:48:11;;;;;;;42.08;23.33;;;23.80;48.20;;;;;;6158839;28;82968;-62
2021/12/10 11:51:12;;;;;;;35.03;22.10;;;23.80;48.40;;;;;;6157302;28;83296;-63
2021/12/10 11:54:12;;;;;;;35.45;21.77;;;23.60;49.20;;;;;;6155511;28;84385;-65
2021/12/10 11:57:13;;;;;;;32.45;20.75;;;23.60;49.10;;;;;;6158584;28;83349;-64
2021/12/10 12:00:13;;;;;;;37.63;22.20;;;23.60;49.00;;;;;;6156355;28;83256;-64
2021/12/10 12:03:17;;;;;;;32.70;21.63;;;23.50;49.20;;;;;;6156846;28;83611;-64
2021/12/10 12:06:17;;;;;;;35.97;21.27;;;23.50;48.90;;;;;;6158573;28;83016;-62
2021/12/10 12:09:18;;;;;;;31.95;19.92;;;23.40;48.80;;;;;;6158511;28;84200;-62
2021/12/10 12:12:18;;;;;;;32.15;19.65;;;23.40;49.20;;;;;;6157671;28;83969;-62
2021/12/10 12:15:19;;;;;;;35.40;21.45;;;23.50;48.90;;;;;;6187864;28;83960;-62
2021/12/10 12:18:25;;;;;;;34.42;22.48;;;23.50;48.60;;;;;;6158115;28;83256;-64
2021/12/10 12:27:49;;;;;;;33.42;20.25;;;23.40;48.00;;;;;;6143757;28;84206;-65
2021/12/10 12:30:49;;;;;;;32.58;20.50;;;23.40;47.90;;;;;;6157279;28;84465;-65
2021/12/10 12:33:50;;;;;;;33.90;19.60;;;23.40;48.30;;;;;;6157172;28;84284;-64
2021/12/10 12:36:50;;;;;;;35.22;18.00;;;23.40;48.40;;;;;;6154767;28;84001;-66
2021/12/10 12:39:51;;;;;;;31.90;19.25;;;23.30;48.70;;;;;;6155066;28;83462;-65
2021/12/10 12:42:51;;;;;;;32.75;19.50;;;23.40;48.60;;;;;;6155047;28;84391;-64
2021/12/10 12:45:52;;;;;;;32.95;18.05;;;23.30;48.50;;;;;;6154433;28;83389;-63
2021/12/10 12:48:52;;;;;;;30.33;18.30;;;23.20;48.40;;;;;;6154996;28;83342;-67
2021/12/10 12:51:53;;;;;;;31.80;17.98;;;23.20;49.00;;;;;;6149928;28;83033;-66
2021/12/10 12:54:53;;;;;;;29.17;17.75;;;23.20;48.40;;;;;;6154380;28;83486;-66
2021/12/10 12:57:54;;;;;;;31.38;18.65;;;23.10;49.00;;;;;;6155947;28;86246;-65
2021/12/10 13:00:55;;;;;;;32.45;18.23;;;23.10;48.40;;;;;;6154696;28;83257;-65
2021/12/10 13:03:55;;;;;;;40.28;19.00;;;23.10;48.20;;;;;;6151434;28;83944;-66
2021/12/10 13:06:56;;;;;;;36.58;19.50;;;23.10;48.30;;;;;;6153519;28;83586;-63
2021/12/10 13:10:01;;;;;;;30.90;17.58;;;23.00;48.60;;;;;;6150901;28;84389;-64
2021/12/10 13:13:12;;;;;;;33.70;19.42;;;23.10;48.40;;;;;;6147239;28;83201;-64
2021/12/10 13:16:13;;;;;;;32.90;18.10;;;23.10;48.60;;;;;;6154607;28;82983;-66
2021/12/10 13:19:16;;;;;;;30.42;17.73;;;23.10;49.10;;;;;;6154019;28;83463;-67
2021/12/10 13:22:16;;;;;;;30.85;17.42;;;23.10;49.50;;;;;;6151414;28;83067;-65
2021/12/10 13:25:17;;;;;;;32.22;18.77;;;23.20;49.30;;;;;;6152652;28;83401;-64
2021/12/10 13:28:17;;;;;;;29.55;19.00;;;23.10;49.90;;;;;;6152647;28;83513;-65
2021/12/10 13:31:18;;;;;;;31.67;19.25;;;23.10;50.00;;;;;;6153345;28;84080;-64
2021/12/10 13:34:19;;;;;;;27.60;16.85;;;23.10;49.70;;;;;;6155037;28;83048;-64
2021/12/10 13:37:21;;;;;;;33.58;18.30;;;23.10;49.80;;;;;;6156435;28;83961;-64
2021/12/10 13:40:21;;;;;;;26.85;16.83;;;23.10;49.80;;;;;;6155792;28;83099;-64
2021/12/10 13:43:22;;;;;;;31.50;17.95;;;23.10;49.90;;;;;;6155771;28;83392;-64
2021/12/10 13:46:28;;;;;;;32.80;18.13;;;23.00;49.50;;;;;;6147114;28;83279;-64
2021/12/10 13:49:29;;;;;;;30.33;18.67;;;23.00;49.80;;;;;;6149297;28;84356;-68
2021/12/10 13:52:29;;;;;;;32.85;17.60;;;23.00;49.70;;;;;;6154523;28;83222;-71
2021/12/10 13:55:30;;;;;;;38.45;17.90;;;23.00;49.60;;;;;;6150022;28;82884;-71
2021/12/10 13:58:34;;;;;;;27.05;15.98;;;22.90;49.20;;;;;;6155242;28;83886;-72
2021/12/10 14:01:34;;;;;;;25.38;15.60;;;22.80;49.60;;;;;;6154024;28;83422;-71
2021/12/10 14:04:36;;;;;;;27.33;16.48;;;22.80;49.50;;;;;;6154025;28;83620;-72
2021/12/10 14:07:37;;;;;;;24.45;14.82;;;22.80;49.00;;;;;;6146368;28;83551;-69
2021/12/10 14:10:39;;;;;;;25.83;16.75;;;22.80;49.10;;;;;;6156537;28;83038;-72
2021/12/10 14:13:39;;;;;;;30.65;16.95;;;22.80;48.80;;;;;;6155133;28;84088;-71
2021/12/10 14:16:40;;;;;;;30.00;16.23;;;22.90;47.80;;;;;;6152762;28;83707;-71
2021/12/10 14:19:40;;;;;;;28.73;16.70;;;22.90;47.80;;;;;;6151389;28;84427;-68
2021/12/10 14:22:42;;;;;;;25.42;15.05;;;23.00;47.60;;;;;;6150657;28;83302;-71
2021/12/10 14:25:45;;;;;;;24.98;15.57;;;23.00;47.50;;;;;;6154252;28;83003;-73
2021/12/10 14:28:45;;;;;;;26.77;16.63;;;23.00;47.20;;;;;;6149266;28;83455;-68
2021/12/10 14:31:46;;;;;;;26.88;17.17;;;23.10;47.10;;;;;;6156271;28;83130;-71
2021/12/10 14:34:46;;;;;;;27.67;16.13;;;23.10;46.60;;;;;;6153319;28;84339;-71
2021/12/10 14:37:47;;;;;;;25.63;16.27;;;23.10;46.50;;;;;;6149791;28;84009;-71
2021/12/10 14:40:48;;;;;;;29.65;17.27;;;23.20;46.20;;;;;;6155979;28;83323;-73
2021/12/10 14:43:49;;;;;;;27.88;17.92;;;23.20;46.00;;;;;;6155262;28;84053;-73
2021/12/10 14:46:49;;;;;;;26.75;16.42;;;23.20;45.70;;;;;;6152707;28;83355;-68
2021/12/10 14:49:50;;;;;;;27.58;16.23;;;23.20;45.50;;;;;;6153248;28;83349;-74
2021/12/10 14:52:50;;;;;;;25.08;15.88;;;23.20;45.30;;;;;;6154715;28;83141;-72
2021/12/10 14:55:51;;;;;;;28.20;16.90;;;23.20;45.00;;;;;;6153169;28;83356;-72
2021/12/10 14:58:52;;;;;;;27.30;17.33;;;23.20;44.60;;;;;;6155304;28;83486;-72
2021/12/10 15:01:52;;;;;;;30.92;18.10;;;23.20;44.40;;;;;;6152278;28;84317;-72
2021/12/10 15:04:53;;;;;;;29.60;18.42;;;23.10;44.10;;;;;;6155058;28;82907;-71
2021/12/10 15:07:53;;;;;;;30.30;18.98;;;23.10;44.00;;;;;;6155031;28;83745;-72
2021/12/10 15:10:54;;;;;;;32.58;18.88;;;23.00;43.70;;;;;;6159833;28;83292;-72
2021/12/10 15:13:54;;;;;;;28.52;18.05;;;23.10;43.60;;;;;;6155577;28;83485;-69
2021/12/10 15:16:55;;;;;;;28.50;18.42;;;23.00;43.20;;;;;;6154593;28;83473;-72
2021/12/10 15:19:57;;;;;;;29.67;18.17;;;23.00;43.10;;;;;;6156675;28;83479;-72
2021/12/10 15:22:58;;;;;;;32.67;19.17;;;22.90;43.10;;;;;;6157350;28;85858;-72
2021/12/10 15:25:58;;;;;;;31.25;19.85;;;22.90;42.70;;;;;;6159359;28;83273;-71
2021/12/10 15:28:59;;;;;;;30.75;19.73;;;22.90;42.60;;;;;;6157295;28;85374;-71
2021/12/10 15:31:59;;;;;;;31.80;19.42;;;22.90;42.30;;;;;;6158630;28;83173;-72
2021/12/10 15:35:00;;;;;;;32.80;20.17;;;22.90;42.10;;;;;;6159248;28;83815;-72
2021/12/10 15:38:00;;;;;;;30.13;18.25;;;22.90;42.10;;;;;;6157817;28;83621;-72